This is the latest recevied weather packets stored in our database for station/object W4SMH. If no packets are shown the sender has not sent any weather packets the latest 10 day(s).
| Time | Temp. | Humidity | Pressure | Rain* | Wind** | Luminosity | Snow |
|---|---|---|---|---|---|---|---|
| 1777784083 | 7.22° C | 64% | 1012.6 hPa | 0 mm | - | 0 W/m² | - |
| 1777783642 | 7.22° C | 64% | 1012.6 hPa | 0 mm | - | 0 W/m² | - |
| 1777783195 | 3.33° C | 91% | 1013.9 hPa | 0 mm | - | 0 W/m² | - |
| 1777782704 | 7.22° C | 64% | 1012.7 hPa | 0 mm | - | 0 W/m² | - |
| 1777781901 | 7.22° C | 63% | 1012.8 hPa | 0 mm | - | 0 W/m² | - |
| 1777781840 | 7.22° C | 63% | 1013 hPa | 0 mm | - | 0 W/m² | - |
| 1777781146 | 7.78° C | 64% | 1012.9 hPa | 0 mm | - | 0 W/m² | - |
| 1777781061 | 7.78° C | 64% | 1012.9 hPa | 0 mm | - | 0 W/m² | - |
| 1777780973 | 7.78° C | 62% | 1012.9 hPa | 0 mm | - | 0 W/m² | - |
| 1777780201 | 2.78° C | 90% | 1014 hPa | 0 mm | - | 0 W/m² | - |
| 1777779853 | 7.78° C | 63% | 1013.1 hPa | 0 mm | - | 0 W/m² | - |
| 1777779505 | 7.78° C | 62% | 1013.1 hPa | 0 mm | - | 0 W/m² | - |
| 1777779474 | 7.78° C | 62% | 1013 hPa | 0 mm | - | 0 W/m² | - |
| 1777779223 | 7.78° C | 63% | 1013 hPa | 0 mm | - | 0 W/m² | - |
| 1777779103 | 8.33° C | 62% | 1013.1 hPa | 0 mm | - | 0 W/m² | - |
| 1777778656 | 8.33° C | 62% | 1013.2 hPa | 0 mm | - | 0 W/m² | - |
| 1777778554 | 8.33° C | 62% | 1013.2 hPa | 0 mm | - | 0 W/m² | - |
| 1777778080 | 8.33° C | 60% | 1013 hPa | 0 mm | - | 0 W/m² | - |
| 1777777642 | 8.33° C | 61% | 1013.1 hPa | 0 mm | - | 0 W/m² | - |
| 1777777441 | 3.33° C | 90% | 1013.7 hPa | 0 mm | - | 0 W/m² | - |
| 1777777293 | 8.33° C | 61% | 1013.2 hPa | 0 mm | - | 0 W/m² | - |
| 1777777056 | 8.33° C | 60% | 1013.3 hPa | 0 mm | - | 0 W/m² | - |
| 1777776991 | 8.33° C | 60% | 1013.3 hPa | 0 mm | - | 0 W/m² | - |
| 1777776938 | 8.33° C | 60% | 1013.3 hPa | 0 mm | - | 0 W/m² | - |
| 1777776186 | 8.89° C | 60% | 1013.3 hPa | 0 mm | - | 0 W/m² | - |
* Rain latest hour (hover to see other rain measurements)
** Current wind speed in m/s (hover to see current wind gust speed)